sensor_id;sensor_type;location;lat;lon;timestamp;temperature;humidity
42147;DHT22;27815;43.410;11.852;2023-03-14T00:03:18;13.40;62.10
42147;DHT22;27815;43.410;11.852;2023-03-14T00:07:20;13.30;62.20
42147;DHT22;27815;43.410;11.852;2023-03-14T00:11:23;13.30;62.10
42147;DHT22;27815;43.410;11.852;2023-03-14T00:15:26;13.30;62.10
42147;DHT22;27815;43.410;11.852;2023-03-14T00:19:31;13.30;62.00
42147;DHT22;27815;43.410;11.852;2023-03-14T00:23:35;13.30;61.90
42147;DHT22;27815;43.410;11.852;2023-03-14T00:27:38;13.30;61.90
42147;DHT22;27815;43.410;11.852;2023-03-14T00:31:43;13.30;61.80
42147;DHT22;27815;43.410;11.852;2023-03-14T00:35:56;13.30;61.90
42147;DHT22;27815;43.410;11.852;2023-03-14T00:40:00;13.10;62.10
42147;DHT22;27815;43.410;11.852;2023-03-14T00:44:04;12.80;62.80
42147;DHT22;27815;43.410;11.852;2023-03-14T00:48:07;12.70;63.10
42147;DHT22;27815;43.410;11.852;2023-03-14T00:52:11;12.70;63.60
42147;DHT22;27815;43.410;11.852;2023-03-14T00:56:16;12.90;63.30
42147;DHT22;27815;43.410;11.852;2023-03-14T01:00:33;13.00;62.90
42147;DHT22;27815;43.410;11.852;2023-03-14T01:04:37;13.10;62.70
42147;DHT22;27815;43.410;11.852;2023-03-14T01:08:45;13.10;62.60
42147;DHT22;27815;43.410;11.852;2023-03-14T01:13:03;13.10;62.50
42147;DHT22;27815;43.410;11.852;2023-03-14T01:17:21;13.10;62.20
42147;DHT22;27815;43.410;11.852;2023-03-14T01:21:34;13.10;62.20
42147;DHT22;27815;43.410;11.852;2023-03-14T01:25:51;13.20;61.70
42147;DHT22;27815;43.410;11.852;2023-03-14T01:29:57;13.20;61.70
42147;DHT22;27815;43.410;11.852;2023-03-14T01:34:14;13.30;61.40
42147;DHT22;27815;43.410;11.852;2023-03-14T01:38:32;13.10;61.40
42147;DHT22;27815;43.410;11.852;2023-03-14T01:42:37;13.20;61.10
42147;DHT22;27815;43.410;11.852;2023-03-14T01:46:55;13.20;61.30
42147;DHT22;27815;43.410;11.852;2023-03-14T01:51:14;13.10;61.40
42147;DHT22;27815;43.410;11.852;2023-03-14T01:55:21;13.10;61.20
42147;DHT22;27815;43.410;11.852;2023-03-14T01:59:40;13.20;61.10
42147;DHT22;27815;43.410;11.852;2023-03-14T02:03:46;13.10;61.30
42147;DHT22;27815;43.410;11.852;2023-03-14T02:08:06;13.00;61.30
42147;DHT22;27815;43.410;11.852;2023-03-14T02:12:25;13.10;61.10
42147;DHT22;27815;43.410;11.852;2023-03-14T02:17:04;13.00;61.10
42147;DHT22;27815;43.410;11.852;2023-03-14T02:21:54;13.00;61.20
42147;DHT22;27815;43.410;11.852;2023-03-14T02:26:22;13.00;61.00
42147;DHT22;27815;43.410;11.852;2023-03-14T02:30:28;13.00;61.10
42147;DHT22;27815;43.410;11.852;2023-03-14T02:34:45;13.00;61.00
42147;DHT22;27815;43.410;11.852;2023-03-14T02:38:52;13.00;60.90
42147;DHT22;27815;43.410;11.852;2023-03-14T02:43:07;13.00;61.00
42147;DHT22;27815;43.410;11.852;2023-03-14T02:47:22;13.00;61.10
42147;DHT22;27815;43.410;11.852;2023-03-14T02:51:28;13.00;61.20
42147;DHT22;27815;43.410;11.852;2023-03-14T02:55:49;13.00;61.50
42147;DHT22;27815;43.410;11.852;2023-03-14T03:00:10;12.90;61.80
42147;DHT22;27815;43.410;11.852;2023-03-14T03:04:31;13.00;61.80
42147;DHT22;27815;43.410;11.852;2023-03-14T03:08:35;13.00;62.00
42147;DHT22;27815;43.410;11.852;2023-03-14T03:12:43;12.90;62.20
42147;DHT22;27815;43.410;11.852;2023-03-14T03:16:58;12.90;62.30
42147;DHT22;27815;43.410;11.852;2023-03-14T03:21:16;12.90;62.40
42147;DHT22;27815;43.410;11.852;2023-03-14T03:25:20;12.90;62.40
42147;DHT22;27815;43.410;11.852;2023-03-14T03:29:25;12.90;62.20
42147;DHT22;27815;43.410;11.852;2023-03-14T03:33:41;13.00;62.10
42147;DHT22;27815;43.410;11.852;2023-03-14T03:38:00;12.90;62.10
42147;DHT22;27815;43.410;11.852;2023-03-14T03:42:12;12.90;62.40
42147;DHT22;27815;43.410;11.852;2023-03-14T03:46:33;12.80;62.50
42147;DHT22;27815;43.410;11.852;2023-03-14T03:51:11;12.90;62.40
42147;DHT22;27815;43.410;11.852;2023-03-14T03:55:15;12.90;62.60
42147;DHT22;27815;43.410;11.852;2023-03-14T03:59:20;13.00;62.90
42147;DHT22;27815;43.410;11.852;2023-03-14T04:03:26;12.90;63.20
42147;DHT22;27815;43.410;11.852;2023-03-14T04:07:31;12.90;63.30
42147;DHT22;27815;43.410;11.852;2023-03-14T04:11:36;12.90;63.40
42147;DHT22;27815;43.410;11.852;2023-03-14T04:16:00;12.90;63.30
42147;DHT22;27815;43.410;11.852;2023-03-14T04:20:04;12.90;63.20
42147;DHT22;27815;43.410;11.852;2023-03-14T04:24:11;13.00;63.20
42147;DHT22;27815;43.410;11.852;2023-03-14T04:28:15;13.00;63.30
42147;DHT22;27815;43.410;11.852;2023-03-14T04:32:18;13.00;63.20
42147;DHT22;27815;43.410;11.852;2023-03-14T04:36:35;13.00;62.70
42147;DHT22;27815;43.410;11.852;2023-03-14T04:40:44;13.10;62.70
42147;DHT22;27815;43.410;11.852;2023-03-14T04:44:49;13.20;62.70
42147;DHT22;27815;43.410;11.852;2023-03-14T04:48:57;13.10;62.60
42147;DHT22;27815;43.410;11.852;2023-03-14T04:53:16;13.10;62.80
42147;DHT22;27815;43.410;11.852;2023-03-14T04:57:21;13.10;62.70
42147;DHT22;27815;43.410;11.852;2023-03-14T05:01:25;13.20;62.80
42147;DHT22;27815;43.410;11.852;2023-03-14T05:05:54;13.20;62.60
42147;DHT22;27815;43.410;11.852;2023-03-14T05:10:13;13.20;62.50
42147;DHT22;27815;43.410;11.852;2023-03-14T05:14:23;13.10;62.70
42147;DHT22;27815;43.410;11.852;2023-03-14T05:18:54;13.10;62.80
42147;DHT22;27815;43.410;11.852;2023-03-14T05:23:19;13.10;63.00
42147;DHT22;27815;43.410;11.852;2023-03-14T05:27:22;13.00;63.00
42147;DHT22;27815;43.410;11.852;2023-03-14T05:31:57;13.00;63.10
42147;DHT22;27815;43.410;11.852;2023-03-14T05:36:24;12.90;63.30
42147;DHT22;27815;43.410;11.852;2023-03-14T05:40:36;12.90;63.30
42147;DHT22;27815;43.410;11.852;2023-03-14T05:44:51;12.80;63.40
42147;DHT22;27815;43.410;11.852;2023-03-14T05:49:13;12.90;63.40
42147;DHT22;27815;43.410;11.852;2023-03-14T05:53:39;12.80;63.90
42147;DHT22;27815;43.410;11.852;2023-03-14T05:58:00;12.80;64.00
42147;DHT22;27815;43.410;11.852;2023-03-14T06:02:19;12.80;64.30
42147;DHT22;27815;43.410;11.852;2023-03-14T06:06:32;12.80;64.60
42147;DHT22;27815;43.410;11.852;2023-03-14T06:10:36;12.80;64.80
42147;DHT22;27815;43.410;11.852;2023-03-14T06:15:02;12.70;65.00
42147;DHT22;27815;43.410;11.852;2023-03-14T06:19:06;12.80;65.10
42147;DHT22;27815;43.410;11.852;2023-03-14T06:23:23;12.80;65.10
42147;DHT22;27815;43.410;11.852;2023-03-14T06:27:32;12.80;65.40
42147;DHT22;27815;43.410;11.852;2023-03-14T06:31:37;12.80;65.40
42147;DHT22;27815;43.410;11.852;2023-03-14T06:35:55;12.90;65.60
42147;DHT22;27815;43.410;11.852;2023-03-14T06:40:17;12.80;66.10
42147;DHT22;27815;43.410;11.852;2023-03-14T06:44:59;12.90;66.60
42147;DHT22;27815;43.410;11.852;2023-03-14T06:49:38;12.80;67.20
42147;DHT22;27815;43.410;11.852;2023-03-14T06:54:17;12.80;67.30
42147;DHT22;27815;43.410;11.852;2023-03-14T06:58:54;12.80;67.50
42147;DHT22;27815;43.410;11.852;2023-03-14T07:03:13;12.90;67.60
42147;DHT22;27815;43.410;11.852;2023-03-14T07:07:35;12.90;68.00
42147;DHT22;27815;43.410;11.852;2023-03-14T07:11:41;13.00;68.10
42147;DHT22;27815;43.410;11.852;2023-03-14T07:15:45;12.90;68.10
42147;DHT22;27815;43.410;11.852;2023-03-14T07:19:51;13.10;67.90
42147;DHT22;27815;43.410;11.852;2023-03-14T07:24:22;13.20;67.10
42147;DHT22;27815;43.410;11.852;2023-03-14T07:28:40;13.20;66.50
42147;DHT22;27815;43.410;11.852;2023-03-14T07:33:36;13.20;66.70
42147;DHT22;27815;43.410;11.852;2023-03-14T07:38:11;13.30;66.20
42147;DHT22;27815;43.410;11.852;2023-03-14T07:42:50;13.40;66.40
42147;DHT22;27815;43.410;11.852;2023-03-14T07:47:15;13.90;64.80
42147;DHT22;27815;43.410;11.852;2023-03-14T07:51:49;14.20;64.00
42147;DHT22;27815;43.410;11.852;2023-03-14T07:55:52;14.50;62.50
42147;DHT22;27815;43.410;11.852;2023-03-14T07:59:56;14.50;61.70
42147;DHT22;27815;43.410;11.852;2023-03-14T08:04:32;14.50;61.70
42147;DHT22;27815;43.410;11.852;2023-03-14T08:09:09;14.50;61.70
42147;DHT22;27815;43.410;11.852;2023-03-14T08:13:26;14.30;62.40
42147;DHT22;27815;43.410;11.852;2023-03-14T08:18:12;14.10;62.90
42147;DHT22;27815;43.410;11.852;2023-03-14T08:22:29;14.00;63.40
42147;DHT22;27815;43.410;11.852;2023-03-14T08:26:46;13.90;63.90
42147;DHT22;27815;43.410;11.852;2023-03-14T08:31:23;13.90;64.60
42147;DHT22;27815;43.410;11.852;2023-03-14T08:35:41;13.80;65.10
42147;DHT22;27815;43.410;11.852;2023-03-14T08:39:45;13.80;65.50
42147;DHT22;27815;43.410;11.852;2023-03-14T08:44:02;14.00;65.60
42147;DHT22;27815;43.410;11.852;2023-03-14T08:48:36;14.00;65.30
42147;DHT22;27815;43.410;11.852;2023-03-14T08:52:55;14.00;64.90
42147;DHT22;27815;43.410;11.852;2023-03-14T08:57:15;14.10;63.50
42147;DHT22;27815;43.410;11.852;2023-03-14T09:01:20;14.00;63.50
42147;DHT22;27815;43.410;11.852;2023-03-14T09:05:27;14.00;63.70
42147;DHT22;27815;43.410;11.852;2023-03-14T09:09:35;14.00;64.30
42147;DHT22;27815;43.410;11.852;2023-03-14T09:13:52;14.00;64.80
42147;DHT22;27815;43.410;11.852;2023-03-14T09:18:12;14.00;66.00
42147;DHT22;27815;43.410;11.852;2023-03-14T09:22:32;13.90;67.50
42147;DHT22;27815;43.410;11.852;2023-03-14T09:26:51;13.70;69.00
42147;DHT22;27815;43.410;11.852;2023-03-14T09:31:46;13.50;70.20
42147;DHT22;27815;43.410;11.852;2023-03-14T09:36:09;13.30;71.90
42147;DHT22;27815;43.410;11.852;2023-03-14T09:40:14;13.20;72.90
42147;DHT22;27815;43.410;11.852;2023-03-14T09:44:34;13.10;73.70
42147;DHT22;27815;43.410;11.852;2023-03-14T09:48:40;13.10;74.30
42147;DHT22;27815;43.410;11.852;2023-03-14T09:53:03;13.10;74.50
42147;DHT22;27815;43.410;11.852;2023-03-14T09:57:17;13.10;74.30
42147;DHT22;27815;43.410;11.852;2023-03-14T10:02:11;13.10;74.40
42147;DHT22;27815;43.410;11.852;2023-03-14T10:06:16;13.10;74.20
42147;DHT22;27815;43.410;11.852;2023-03-14T10:10:38;13.10;74.50
42147;DHT22;27815;43.410;11.852;2023-03-14T10:15:12;13.20;74.30
42147;DHT22;27815;43.410;11.852;2023-03-14T10:19:55;13.30;74.50
42147;DHT22;27815;43.410;11.852;2023-03-14T10:28:41;13.40;74.60
42147;DHT22;27815;43.410;11.852;2023-03-14T10:32:48;13.40;74.60
42147;DHT22;27815;43.410;11.852;2023-03-14T10:36:54;13.40;74.70
42147;DHT22;27815;43.410;11.852;2023-03-14T10:40:58;13.50;74.70
42147;DHT22;27815;43.410;11.852;2023-03-14T10:45:03;13.50;74.80
42147;DHT22;27815;43.410;11.852;2023-03-14T10:49:23;13.50;74.80
42147;DHT22;27815;43.410;11.852;2023-03-14T11:07:29;13.60;75.70
42147;DHT22;27815;43.410;11.852;2023-03-14T11:11:56;13.50;75.90
42147;DHT22;27815;43.410;11.852;2023-03-14T11:16:22;13.60;76.20
42147;DHT22;27815;43.410;11.852;2023-03-14T11:25:11;13.50;77.20
42147;DHT22;27815;43.410;11.852;2023-03-14T11:34:07;13.40;78.50
42147;DHT22;27815;43.410;11.852;2023-03-14T11:48:23;13.30;80.20
42147;DHT22;27815;43.410;11.852;2023-03-14T11:53:46;13.20;80.60
42147;DHT22;27815;43.410;11.852;2023-03-14T11:58:25;13.20;81.00
42147;DHT22;27815;43.410;11.852;2023-03-14T12:03:03;13.20;81.30
42147;DHT22;27815;43.410;11.852;2023-03-14T12:12:51;13.20;81.60
42147;DHT22;27815;43.410;11.852;2023-03-14T12:21:51;13.20;81.80
42147;DHT22;27815;43.410;11.852;2023-03-14T12:26:43;13.30;81.90
42147;DHT22;27815;43.410;11.852;2023-03-14T15:20:11;16.50;70.30
42147;DHT22;27815;43.410;11.852;2023-03-14T15:24:58;16.30;66.00
42147;DHT22;27815;43.410;11.852;2023-03-14T15:29:01;16.10;63.70
42147;DHT22;27815;43.410;11.852;2023-03-14T15:33:05;16.00;64.00
42147;DHT22;27815;43.410;11.852;2023-03-14T15:37:12;16.00;65.00
42147;DHT22;27815;43.410;11.852;2023-03-14T15:41:15;15.90;65.10
42147;DHT22;27815;43.410;11.852;2023-03-14T15:45:24;15.80;63.70
42147;DHT22;27815;43.410;11.852;2023-03-14T15:49:43;15.60;63.20
42147;DHT22;27815;43.410;11.852;2023-03-14T15:53:47;15.50;62.60
42147;DHT22;27815;43.410;11.852;2023-03-14T15:57:58;15.50;63.20
42147;DHT22;27815;43.410;11.852;2023-03-14T16:02:03;15.40;63.30
42147;DHT22;27815;43.410;11.852;2023-03-14T16:06:06;15.30;63.60
42147;DHT22;27815;43.410;11.852;2023-03-14T16:10:10;15.20;63.50
42147;DHT22;27815;43.410;11.852;2023-03-14T16:14:13;15.10;63.90
42147;DHT22;27815;43.410;11.852;2023-03-14T16:18:34;15.10;64.30
42147;DHT22;27815;43.410;11.852;2023-03-14T16:22:38;15.10;64.60
42147;DHT22;27815;43.410;11.852;2023-03-14T16:26:41;15.20;64.80
42147;DHT22;27815;43.410;11.852;2023-03-14T16:30:44;15.10;64.40
42147;DHT22;27815;43.410;11.852;2023-03-14T16:34:46;15.00;64.70
42147;DHT22;27815;43.410;11.852;2023-03-14T16:38:49;14.90;64.90
42147;DHT22;27815;43.410;11.852;2023-03-14T16:42:52;14.80;64.80
42147;DHT22;27815;43.410;11.852;2023-03-14T16:47:15;14.60;65.00
42147;DHT22;27815;43.410;11.852;2023-03-14T16:51:18;14.50;65.30
42147;DHT22;27815;43.410;11.852;2023-03-14T16:55:21;14.50;65.40
42147;DHT22;27815;43.410;11.852;2023-03-14T16:59:23;14.50;65.30
42147;DHT22;27815;43.410;11.852;2023-03-14T17:03:28;14.30;65.40
42147;DHT22;27815;43.410;11.852;2023-03-14T17:07:31;14.20;65.10
42147;DHT22;27815;43.410;11.852;2023-03-14T17:11:34;14.10;65.50
42147;DHT22;27815;43.410;11.852;2023-03-14T17:15:37;14.00;65.70
42147;DHT22;27815;43.410;11.852;2023-03-14T17:19:40;13.90;65.70
42147;DHT22;27815;43.410;11.852;2023-03-14T17:23:42;13.80;65.90
42147;DHT22;27815;43.410;11.852;2023-03-14T17:27:45;13.60;66.10
42147;DHT22;27815;43.410;11.852;2023-03-14T17:31:48;13.40;66.40
42147;DHT22;27815;43.410;11.852;2023-03-14T17:35:52;13.20;66.80
42147;DHT22;27815;43.410;11.852;2023-03-14T17:39:55;13.00;67.20
42147;DHT22;27815;43.410;11.852;2023-03-14T17:43:57;12.70;67.80
42147;DHT22;27815;43.410;11.852;2023-03-14T17:48:00;12.50;68.30
42147;DHT22;27815;43.410;11.852;2023-03-14T17:52:05;12.40;68.60
42147;DHT22;27815;43.410;11.852;2023-03-14T17:56:10;12.30;68.60
42147;DHT22;27815;43.410;11.852;2023-03-14T18:00:14;12.30;68.90
42147;DHT22;27815;43.410;11.852;2023-03-14T18:04:17;12.20;69.10
42147;DHT22;27815;43.410;11.852;2023-03-14T18:08:20;12.00;69.60
42147;DHT22;27815;43.410;11.852;2023-03-14T18:12:23;11.90;69.90
42147;DHT22;27815;43.410;11.852;2023-03-14T18:16:28;11.80;70.10
42147;DHT22;27815;43.410;11.852;2023-03-14T18:20:49;11.70;70.60
42147;DHT22;27815;43.410;11.852;2023-03-14T18:25:18;11.60;70.80
42147;DHT22;27815;43.410;11.852;2023-03-14T18:29:51;11.50;70.90
42147;DHT22;27815;43.410;11.852;2023-03-14T18:34:49;11.50;71.20
42147;DHT22;27815;43.410;11.852;2023-03-14T18:38:55;11.50;71.30
42147;DHT22;27815;43.410;11.852;2023-03-14T18:49:22;11.30;72.00
42147;DHT22;27815;43.410;11.852;2023-03-14T18:54:22;11.30;72.30
42147;DHT22;27815;43.410;11.852;2023-03-14T18:58:59;11.30;72.20
42147;DHT22;27815;43.410;11.852;2023-03-14T19:04:36;11.30;72.30
42147;DHT22;27815;43.410;11.852;2023-03-14T19:09:40;11.30;72.60
42147;DHT22;27815;43.410;11.852;2023-03-14T19:14:41;11.20;72.90
42147;DHT22;27815;43.410;11.852;2023-03-14T19:18:46;11.20;72.90
42147;DHT22;27815;43.410;11.852;2023-03-14T19:23:04;11.20;72.80
42147;DHT22;27815;43.410;11.852;2023-03-14T19:27:12;11.20;73.00
42147;DHT22;27815;43.410;11.852;2023-03-14T19:31:28;11.10;73.20
42147;DHT22;27815;43.410;11.852;2023-03-14T19:35:46;11.10;73.30
42147;DHT22;27815;43.410;11.852;2023-03-14T19:39:53;11.00;73.50
42147;DHT22;27815;43.410;11.852;2023-03-14T19:43:58;10.90;73.60
42147;DHT22;27815;43.410;11.852;2023-03-14T19:48:25;10.80;73.90
42147;DHT22;27815;43.410;11.852;2023-03-14T19:52:35;10.70;74.10
42147;DHT22;27815;43.410;11.852;2023-03-14T19:56:42;10.70;74.30
42147;DHT22;27815;43.410;11.852;2023-03-14T20:01:03;10.60;74.70
42147;DHT22;27815;43.410;11.852;2023-03-14T20:05:09;10.60;74.80
42147;DHT22;27815;43.410;11.852;2023-03-14T20:09:30;10.60;74.80
42147;DHT22;27815;43.410;11.852;2023-03-14T20:13:52;10.70;74.80
42147;DHT22;27815;43.410;11.852;2023-03-14T20:18:10;10.70;74.60
42147;DHT22;27815;43.410;11.852;2023-03-14T20:27:20;10.80;74.40
42147;DHT22;27815;43.410;11.852;2023-03-14T20:31:40;10.90;74.20
42147;DHT22;27815;43.410;11.852;2023-03-14T20:36:34;11.00;74.20
42147;DHT22;27815;43.410;11.852;2023-03-14T20:40:37;11.00;74.50
42147;DHT22;27815;43.410;11.852;2023-03-14T20:44:40;11.10;74.50
42147;DHT22;27815;43.410;11.852;2023-03-14T20:48:42;11.10;74.60
42147;DHT22;27815;43.410;11.852;2023-03-14T20:52:46;11.10;74.60
42147;DHT22;27815;43.410;11.852;2023-03-14T20:56:49;11.10;74.60
42147;DHT22;27815;43.410;11.852;2023-03-14T21:00:52;11.10;74.60
42147;DHT22;27815;43.410;11.852;2023-03-14T21:04:56;11.10;74.80
42147;DHT22;27815;43.410;11.852;2023-03-14T21:08:59;11.10;74.60
42147;DHT22;27815;43.410;11.852;2023-03-14T21:13:06;11.10;74.80
42147;DHT22;27815;43.410;11.852;2023-03-14T21:17:09;11.10;74.70
42147;DHT22;27815;43.410;11.852;2023-03-14T21:21:12;11.00;74.90
42147;DHT22;27815;43.410;11.852;2023-03-14T21:25:15;11.00;75.00
42147;DHT22;27815;43.410;11.852;2023-03-14T21:29:19;11.00;75.10
42147;DHT22;27815;43.410;11.852;2023-03-14T21:33:23;11.00;75.00
42147;DHT22;27815;43.410;11.852;2023-03-14T21:37:26;11.10;74.90
42147;DHT22;27815;43.410;11.852;2023-03-14T21:41:29;11.10;75.00
42147;DHT22;27815;43.410;11.852;2023-03-14T21:45:32;11.10;74.90
42147;DHT22;27815;43.410;11.852;2023-03-14T21:49:37;11.10;74.70
42147;DHT22;27815;43.410;11.852;2023-03-14T21:53:40;11.10;74.80
42147;DHT22;27815;43.410;11.852;2023-03-14T21:57:46;11.20;74.70
42147;DHT22;27815;43.410;11.852;2023-03-14T22:01:50;11.20;74.70
42147;DHT22;27815;43.410;11.852;2023-03-14T22:05:55;11.20;74.60
42147;DHT22;27815;43.410;11.852;2023-03-14T22:09:58;11.10;74.90
42147;DHT22;27815;43.410;11.852;2023-03-14T22:14:00;11.10;75.30
42147;DHT22;27815;43.410;11.852;2023-03-14T22:18:03;11.10;75.30
42147;DHT22;27815;43.410;11.852;2023-03-14T22:22:06;11.10;75.20
42147;DHT22;27815;43.410;11.852;2023-03-14T22:26:09;11.10;75.30
42147;DHT22;27815;43.410;11.852;2023-03-14T22:30:11;11.20;75.30
42147;DHT22;27815;43.410;11.852;2023-03-14T22:34:14;11.20;75.40
42147;DHT22;27815;43.410;11.852;2023-03-14T22:38:17;11.20;75.20
42147;DHT22;27815;43.410;11.852;2023-03-14T22:42:20;11.00;75.20
42147;DHT22;27815;43.410;11.852;2023-03-14T22:46:22;10.90;75.30
42147;DHT22;27815;43.410;11.852;2023-03-14T22:50:25;10.90;75.20
42147;DHT22;27815;43.410;11.852;2023-03-14T22:54:28;10.90;75.10
42147;DHT22;27815;43.410;11.852;2023-03-14T22:58:31;10.90;75.00
42147;DHT22;27815;43.410;11.852;2023-03-14T23:02:34;10.80;75.10
42147;DHT22;27815;43.410;11.852;2023-03-14T23:06:37;10.80;75.00
42147;DHT22;27815;43.410;11.852;2023-03-14T23:10:40;10.70;75.10
42147;DHT22;27815;43.410;11.852;2023-03-14T23:14:44;10.60;75.00
42147;DHT22;27815;43.410;11.852;2023-03-14T23:18:47;10.60;75.20
42147;DHT22;27815;43.410;11.852;2023-03-14T23:22:50;10.60;75.30
42147;DHT22;27815;43.410;11.852;2023-03-14T23:26:52;10.60;75.50
42147;DHT22;27815;43.410;11.852;2023-03-14T23:30:56;10.60;76.10
42147;DHT22;27815;43.410;11.852;2023-03-14T23:34:58;10.70;75.90
42147;DHT22;27815;43.410;11.852;2023-03-14T23:39:02;10.80;75.80
42147;DHT22;27815;43.410;11.852;2023-03-14T23:43:05;10.90;75.80
42147;DHT22;27815;43.410;11.852;2023-03-14T23:47:08;11.00;75.70
42147;DHT22;27815;43.410;11.852;2023-03-14T23:51:11;11.00;75.70
42147;DHT22;27815;43.410;11.852;2023-03-14T23:55:14;11.10;75.50
42147;DHT22;27815;43.410;11.852;2023-03-14T23:59:17;11.10;75.40
